Time;durP1;ratioP1;P1;durP2;ratioP2;P2;SDS_P1;SDS_P2;PMS_P1;PMS_P2;Temp;Humidity;BMP_temperature;BMP_pressure;BME280_temperature;BME280_humidity;BME280_pressure;Samples;Min_cycle;Max_cycle;Signal;HPM_P1;HPM_P2
2022/07/13 00:00:46;;;;;;;6.68;2.40;;;18.10;1.00;;;;;;5008951;28;20396;-54
2022/07/13 00:03:12;;;;;;;5.93;2.30;;;18.00;1.00;;;;;;5009507;28;20389;-54
2022/07/13 00:05:38;;;;;;;6.80;2.60;;;18.00;1.00;;;;;;5009155;28;20457;-54
2022/07/13 00:08:03;;;;;;;7.60;2.55;;;18.10;1.00;;;;;;5009259;28;20393;-54
2022/07/13 00:10:29;;;;;;;6.75;2.90;;;18.10;1.00;;;;;;5026296;28;20410;-58
2022/07/13 00:12:55;;;;;;;6.23;2.20;;;18.20;1.00;;;;;;5028311;28;20470;-54
2022/07/13 00:15:20;;;;;;;5.70;2.03;;;18.00;1.00;;;;;;5028759;28;20381;-55
2022/07/13 00:17:46;;;;;;;6.40;2.60;;;18.00;1.00;;;;;;5027833;28;20437;-55
2022/07/13 00:20:11;;;;;;;7.32;2.30;;;17.90;58.80;;;;;;5028414;28;20527;-54
2022/07/13 00:22:39;;;;;;;7.67;2.30;;;17.90;99.90;;;;;;5027773;28;20395;-55
2022/07/13 00:25:06;;;;;;;6.90;2.70;;;17.80;99.90;;;;;;5028737;28;20394;-55
2022/07/13 00:27:32;;;;;;;7.43;2.38;;;17.70;99.90;;;;;;5028300;28;20398;-58
2022/07/13 00:29:57;;;;;;;6.40;2.40;;;17.40;1.00;;;;;;5017388;28;20773;-54
2022/07/13 00:32:23;;;;;;;6.87;2.60;;;17.50;1.00;;;;;;5008798;28;20388;-55
2022/07/13 00:34:49;;;;;;;7.65;2.50;;;17.50;99.90;;;;;;5007496;28;20401;-54
2022/07/13 00:37:15;;;;;;;6.80;2.50;;;17.50;1.00;;;;;;5013916;28;20481;-54
2022/07/13 00:39:40;;;;;;;6.87;2.47;;;17.30;6.20;;;;;;5008216;28;20479;-55
2022/07/13 00:42:06;;;;;;;6.00;2.23;;;17.20;59.30;;;;;;5008720;28;20504;-55
2022/07/13 00:44:31;;;;;;;7.00;2.40;;;17.20;10.70;;;;;;5019305;28;20422;-58
2022/07/13 00:46:57;;;;;;;6.20;2.40;;;17.10;99.90;;;;;;5027264;28;20411;-54
2022/07/13 00:49:23;;;;;;;7.95;2.58;;;17.20;1.00;;;;;;5028002;28;20858;-54
2022/07/13 00:51:49;;;;;;;7.03;2.28;;;17.10;1.00;;;;;;5027266;28;20406;-55
2022/07/13 00:54:18;;;;;;;6.20;2.50;;;17.10;1.00;;;;;;5009394;28;20715;-54
2022/07/13 00:56:44;;;;;;;6.90;2.60;;;17.10;99.90;;;;;;5007937;28;20458;-55
2022/07/13 00:59:09;;;;;;;6.10;2.13;;;17.20;99.90;;;;;;5027199;28;20443;-54
2022/07/13 01:01:35;;;;;;;8.00;2.53;;;17.20;99.90;;;;;;5028027;28;20383;-55
2022/07/13 01:04:01;;;;;;;7.10;2.47;;;17.20;99.90;;;;;;5010628;28;20668;-56
2022/07/13 01:06:26;;;;;;;6.80;2.45;;;17.10;1.00;;;;;;5011231;28;20404;-53
2022/07/13 01:08:52;;;;;;;6.93;2.50;;;17.10;1.00;;;;;;5027969;28;20483;-54
2022/07/13 01:11:18;;;;;;;6.23;2.30;;;17.10;1.00;;;;;;5026925;28;20846;-54
2022/07/13 01:13:45;;;;;;;6.83;3.10;;;17.10;1.00;;;;;;5007881;28;20385;-55
2022/07/13 01:25:30;;;;;;;7.18;2.20;;;17.00;1.00;;;;;;3429657;28;23939;-56
2022/07/13 01:27:56;;;;;;;6.18;2.35;;;16.90;99.90;;;;;;5081881;28;20463;-54
2022/07/13 01:30:22;;;;;;;6.60;2.43;;;17.00;99.90;;;;;;5080719;28;20382;-53
2022/07/13 01:32:49;;;;;;;6.30;2.40;;;17.00;84.70;;;;;;5077258;28;20383;-52
2022/07/13 01:35:16;;;;;;;6.35;2.40;;;17.00;99.90;;;;;;5079204;28;20390;-52
2022/07/13 01:37:43;;;;;;;5.93;2.10;;;17.00;1.00;;;;;;5078586;28;20405;-52
2022/07/13 01:40:09;;;;;;;5.82;2.40;;;17.10;3.60;;;;;;5078079;28;20951;-53
2022/07/13 01:42:41;;;;;;;6.45;2.28;;;17.10;1.00;;;;;;5078494;28;20417;-52
2022/07/13 01:45:08;;;;;;;8.10;2.50;;;17.20;1.00;;;;;;5077169;28;20903;-52
2022/07/13 01:47:38;;;;;;;7.25;2.70;;;17.30;1.00;;;;;;5078335;28;20398;-53
2022/07/13 01:50:04;;;;;;;6.50;2.60;;;17.50;1.00;;;;;;5079442;28;20483;-52
2022/07/13 01:52:30;;;;;;;7.47;2.40;;;17.40;1.00;;;;;;5077721;28;20394;-61
2022/07/13 01:54:55;;;;;;;6.57;2.30;;;17.40;1.00;;;;;;5078936;28;20754;-52
2022/07/13 01:57:21;;;;;;;6.82;2.50;;;17.50;1.00;;;;;;5079351;28;20448;-53
2022/07/13 01:59:46;;;;;;;7.23;2.50;;;17.60;1.00;;;;;;5077938;28;20402;-53
2022/07/13 02:02:12;;;;;;;6.37;2.40;;;17.60;99.90;;;;;;5076966;28;20378;-56
2022/07/13 02:04:38;;;;;;;6.47;2.30;;;17.60;99.90;;;;;;5078012;28;20376;-53
2022/07/13 02:07:03;;;;;;;7.97;2.70;;;17.50;1.00;;;;;;5081265;28;20394;-53
2022/07/13 02:09:29;;;;;;;6.95;2.90;;;17.40;1.00;;;;;;5082703;28;20377;-60
2022/07/13 02:11:55;;;;;;;6.78;2.80;;;17.40;1.00;;;;;;5079809;28;20395;-53
2022/07/13 02:14:20;;;;;;;7.30;2.60;;;17.40;1.00;;;;;;5082345;28;20486;-53
2022/07/13 02:16:46;;;;;;;8.27;2.77;;;17.40;1.00;;;;;;5081554;28;20408;-55
2022/07/13 02:19:11;;;;;;;7.63;2.93;;;17.50;1.00;;;;;;5080880;28;20414;-53
2022/07/13 02:21:37;;;;;;;6.93;2.50;;;17.50;1.00;;;;;;5083022;28;20392;-53
2022/07/13 02:24:03;;;;;;;8.20;2.70;;;17.50;28.10;;;;;;5083485;28;20382;-53
2022/07/13 02:26:28;;;;;;;6.30;2.30;;;17.60;1.00;;;;;;5080453;28;20466;-53
2022/07/13 02:28:54;;;;;;;6.57;2.60;;;17.60;99.90;;;;;;5080380;28;20417;-58
2022/07/13 02:31:20;;;;;;;7.30;2.47;;;17.60;99.90;;;;;;5083460;28;20429;-55
2022/07/13 02:33:46;;;;;;;6.55;2.78;;;17.60;99.90;;;;;;5079974;28;20785;-55
2022/07/13 02:36:12;;;;;;;8.00;3.00;;;17.60;99.90;;;;;;5081596;28;20421;-54
2022/07/13 02:38:38;;;;;;;6.93;2.30;;;17.70;99.90;;;;;;5079667;28;20415;-56
2022/07/13 02:41:04;;;;;;;6.90;2.70;;;17.60;1.00;;;;;;5082495;28;20388;-53
2022/07/13 02:43:30;;;;;;;6.70;2.57;;;17.60;1.00;;;;;;5078683;28;20910;-60
2022/07/13 02:45:55;;;;;;;6.38;2.22;;;17.60;1.00;;;;;;5080985;28;20439;-53
2022/07/13 02:48:21;;;;;;;7.00;2.50;;;17.60;1.00;;;;;;5081758;28;20402;-53
2022/07/13 02:50:47;;;;;;;6.40;2.20;;;17.60;1.00;;;;;;5079458;28;20392;-54
2022/07/13 02:53:12;;;;;;;6.82;2.60;;;17.60;1.00;;;;;;5082400;28;20991;-58
2022/07/13 02:55:38;;;;;;;5.68;2.20;;;17.50;99.90;;;;;;5080423;28;20398;-58
2022/07/13 02:58:04;;;;;;;6.63;2.50;;;17.40;80.70;;;;;;5080494;28;20418;-58
2022/07/13 03:00:29;;;;;;;6.23;2.60;;;17.40;99.90;;;;;;5082008;28;20735;-59
2022/07/13 03:02:55;;;;;;;5.63;2.30;;;17.40;99.90;;;;;;5079505;28;20732;-59
2022/07/13 03:05:20;;;;;;;7.85;2.42;;;17.50;99.90;;;;;;5080479;28;20409;-52
2022/07/13 03:07:46;;;;;;;6.43;2.58;;;17.40;99.90;;;;;;5081441;28;20489;-53
2022/07/13 03:10:13;;;;;;;6.10;2.40;;;17.30;99.90;;;;;;5080045;28;20390;-53
2022/07/13 03:12:38;;;;;;;6.30;2.70;;;17.20;1.00;;;;;;5079992;28;20588;-53
2022/07/13 03:15:05;;;;;;;5.80;2.53;;;17.20;38.50;;;;;;5079908;28;20477;-53
2022/07/13 03:17:30;;;;;;;7.10;2.70;;;17.20;99.90;;;;;;5090186;28;20888;-60
2022/07/13 03:19:56;;;;;;;5.88;2.30;;;17.10;99.90;;;;;;5089637;28;20390;-57
2022/07/13 03:22:21;;;;;;;5.70;2.40;;;17.10;99.90;;;;;;5071187;28;20375;-56
2022/07/13 03:24:47;;;;;;;7.53;2.73;;;17.10;99.90;;;;;;5081710;28;20393;-54
2022/07/13 03:27:13;;;;;;;6.00;2.57;;;17.20;99.90;;;;;;5079196;28;20408;-55
2022/07/13 03:29:38;;;;;;;6.93;2.37;;;17.20;99.90;;;;;;5079047;28;20382;-55
2022/07/13 03:32:04;;;;;;;7.00;2.30;;;17.20;65.50;;;;;;5079719;28;20507;-53
2022/07/13 03:34:30;;;;;;;7.43;2.80;;;17.20;99.90;;;;;;5080750;28;20492;-53
2022/07/13 03:36:55;;;;;;;6.87;2.50;;;17.10;99.90;;;;;;5080240;28;20785;-53
2022/07/13 03:39:21;;;;;;;6.78;2.60;;;17.10;99.90;;;;;;5079178;28;20918;-53
2022/07/13 03:41:46;;;;;;;9.73;2.80;;;17.00;1.00;;;;;;5079690;28;20403;-53
2022/07/13 03:44:12;;;;;;;6.90;2.83;;;16.90;99.90;;;;;;5084875;28;20398;-53
2022/07/13 03:46:39;;;;;;;9.57;3.00;;;16.90;99.90;;;;;;5089411;28;20394;-53
2022/07/13 03:49:04;;;;;;;7.05;2.70;;;16.90;99.90;;;;;;5090188;28;20482;-53
2022/07/13 03:51:30;;;;;;;6.70;2.78;;;16.90;99.90;;;;;;5084546;28;20456;-52
2022/07/13 03:53:55;;;;;;;8.98;2.65;;;16.90;99.90;;;;;;5069528;28;20384;-56
2022/07/13 03:56:21;;;;;;;5.90;2.67;;;16.90;1.00;;;;;;5084904;28;20482;-53
2022/07/13 03:58:46;;;;;;;6.17;2.67;;;16.90;1.00;;;;;;5078435;28;20412;-53
2022/07/13 04:01:12;;;;;;;6.87;2.53;;;16.80;99.90;;;;;;5083176;28;20390;-53
2022/07/13 04:03:38;;;;;;;7.38;3.10;;;16.90;1.00;;;;;;5079556;28;20382;-53
2022/07/13 04:06:03;;;;;;;7.65;2.75;;;16.80;1.00;;;;;;5078356;28;20428;-53
2022/07/13 04:08:29;;;;;;;7.60;2.70;;;16.80;22.20;;;;;;5082459;28;20403;-52
2022/07/13 04:10:55;;;;;;;6.13;2.70;;;16.80;1.00;;;;;;5075059;28;20378;-60
2022/07/13 04:13:20;;;;;;;7.72;2.95;;;16.90;1.00;;;;;;5082538;28;20389;-52
2022/07/13 04:15:46;;;;;;;7.75;3.08;;;16.90;99.90;;;;;;5068179;28;20400;-52
2022/07/13 04:18:11;;;;;;;8.13;2.92;;;16.80;1.00;;;;;;5071217;28;20421;-53
2022/07/13 04:20:37;;;;;;;7.10;2.67;;;16.80;99.90;;;;;;5068033;28;20442;-53
2022/07/13 04:23:03;;;;;;;7.70;2.70;;;16.80;99.90;;;;;;5070085;28;20403;-52
2022/07/13 04:25:28;;;;;;;8.20;2.70;;;16.70;1.00;;;;;;5082887;28;20398;-52
2022/07/13 04:27:54;;;;;;;6.70;3.08;;;16.60;1.00;;;;;;5078844;28;20586;-52
2022/07/13 04:30:20;;;;;;;7.95;2.90;;;16.60;99.90;;;;;;5087642;28;20401;-54
2022/07/13 04:32:45;;;;;;;7.50;3.10;;;16.70;99.90;;;;;;5085399;28;20476;-52
2022/07/13 04:35:11;;;;;;;8.90;2.83;;;16.80;99.90;;;;;;5069913;28;20781;-55
2022/07/13 04:37:36;;;;;;;6.80;2.50;;;16.90;99.90;;;;;;5083290;28;20410;-57
2022/07/13 04:40:03;;;;;;;6.55;2.72;;;17.00;1.00;;;;;;5082901;28;20391;-55
2022/07/13 04:42:29;;;;;;;8.65;3.00;;;17.10;1.00;;;;;;5069585;28;20736;-53
2022/07/13 04:44:54;;;;;;;6.03;2.60;;;17.20;1.00;;;;;;5085632;28;20386;-52
2022/07/13 04:47:20;;;;;;;6.00;2.50;;;17.30;99.90;;;;;;5084357;28;20383;-55
2022/07/13 04:49:45;;;;;;;8.83;2.70;;;17.40;99.90;;;;;;5081649;28;20458;-52
2022/07/13 04:52:11;;;;;;;7.50;3.30;;;17.60;1.00;;;;;;5080711;28;20407;-53
2022/07/13 04:54:36;;;;;;;6.80;3.00;;;17.70;1.00;;;;;;5080738;28;20476;-62
2022/07/13 04:57:02;;;;;;;8.80;2.80;;;17.70;1.00;;;;;;5079427;28;20430;-54
2022/07/13 04:59:28;;;;;;;6.90;3.10;;;17.90;36.80;;;;;;5077226;28;20416;-53
2022/07/13 05:01:53;;;;;;;10.63;2.90;;;18.40;1.00;;;;;;5069801;28;20564;-52
2022/07/13 05:04:19;;;;;;;7.80;2.85;;;19.40;1.00;;;;;;5069359;28;20443;-53
2022/07/13 05:06:45;;;;;;;8.20;2.92;;;20.60;99.90;;;;;;5085447;28;20383;-54
2022/07/13 05:09:10;;;;;;;7.13;2.55;;;21.70;1.00;;;;;;5087998;28;20924;-56
2022/07/13 05:11:36;;;;;;;6.97;2.43;;;22.60;1.00;;;;;;5071023;28;20472;-62
2022/07/13 05:14:02;;;;;;;7.37;2.97;;;23.70;99.90;;;;;;5069539;28;20388;-56
2022/07/13 05:16:27;;;;;;;8.03;2.80;;;24.30;99.90;;;;;;5088906;28;20840;-54
2022/07/13 05:18:53;;;;;;;7.70;2.63;;;25.00;99.90;;;;;;5086509;28;20490;-53
2022/07/13 05:21:18;;;;;;;7.32;3.15;;;25.30;99.90;;;;;;5070223;28;20387;-57
2022/07/13 05:23:44;;;;;;;8.68;3.08;;;25.60;99.90;;;;;;5071535;28;20396;-53
2022/07/13 05:26:10;;;;;;;6.35;2.60;;;26.10;99.90;;;;;;5089169;28;20433;-53
2022/07/13 05:28:36;;;;;;;6.47;2.65;;;26.50;99.90;;;;;;5078852;28;20414;-62
2022/07/13 05:31:01;;;;;;;8.95;3.10;;;27.10;99.90;;;;;;5083664;28;20443;-54
2022/07/13 05:33:27;;;;;;;8.32;3.47;;;27.50;99.90;;;;;;5089821;28;20401;-53
2022/07/13 05:35:52;;;;;;;7.40;2.90;;;26.80;99.90;;;;;;5072347;28;20474;-53
2022/07/13 05:38:18;;;;;;;9.00;3.17;;;26.00;99.90;;;;;;5076107;28;20416;-53
2022/07/13 05:40:44;;;;;;;8.70;2.93;;;25.60;99.90;;;;;;5090260;28;20432;-53
2022/07/13 05:43:10;;;;;;;7.20;2.60;;;25.30;99.90;;;;;;5081586;28;20408;-53
2022/07/13 05:45:36;;;;;;;6.40;2.60;;;25.80;99.90;;;;;;5072453;28;20376;-64
2022/07/13 05:48:02;;;;;;;8.95;2.60;;;26.70;99.90;;;;;;5091183;28;20393;-53
2022/07/13 05:50:28;;;;;;;7.90;2.90;;;26.50;99.90;;;;;;5081240;28;20384;-53
2022/07/13 05:52:53;;;;;;;9.52;2.95;;;26.20;99.90;;;;;;5074836;28;20873;-53
2022/07/13 05:55:19;;;;;;;7.35;2.80;;;26.50;99.90;;;;;;5092942;28;20400;-53
2022/07/13 05:57:44;;;;;;;8.45;3.10;;;26.50;99.90;;;;;;5089974;28;20416;-53
2022/07/13 06:00:13;;;;;;;9.50;2.67;;;25.90;99.90;;;;;;5090861;28;20397;-53
2022/07/13 06:02:40;;;;;;;8.38;3.17;;;25.30;99.90;;;;;;5090573;28;20390;-53
2022/07/13 06:05:06;;;;;;;7.43;3.40;;;24.50;99.90;;;;;;5083866;28;20433;-55
2022/07/13 06:07:32;;;;;;;9.70;2.80;;;23.90;99.90;;;;;;5081409;28;20779;-53
2022/07/13 06:10:01;;;;;;;11.30;2.60;;;23.50;99.90;;;;;;5082487;28;20393;-53
2022/07/13 06:12:27;;;;;;;9.80;3.00;;;23.20;99.90;;;;;;5092087;28;20441;-53
2022/07/13 06:14:53;;;;;;;7.43;2.88;;;23.20;99.90;;;;;;5089021;28;20398;-53
2022/07/13 06:17:23;;;;;;;7.72;3.20;;;23.20;99.90;;;;;;5090174;28;20766;-53
2022/07/13 06:19:49;;;;;;;7.95;3.00;;;23.30;99.90;;;;;;5079603;28;20740;-59
2022/07/13 06:22:15;;;;;;;6.97;2.90;;;23.60;99.90;;;;;;5078153;28;20474;-53
2022/07/13 06:24:42;;;;;;;9.77;3.25;;;23.80;99.90;;;;;;5091568;28;20378;-55
2022/07/13 06:27:08;;;;;;;8.47;2.90;;;24.10;99.90;;;;;;5080878;28;20407;-53
2022/07/13 06:29:34;;;;;;;9.18;3.00;;;24.30;99.90;;;;;;5075987;28;20436;-53
2022/07/13 06:31:59;;;;;;;8.77;2.77;;;24.30;99.90;;;;;;5071831;28;20917;-53
2022/07/13 06:34:25;;;;;;;8.53;3.10;;;24.10;99.90;;;;;;5085526;28;20390;-54
2022/07/13 06:36:51;;;;;;;9.53;2.67;;;24.30;99.90;;;;;;5087082;28;20760;-53
2022/07/13 06:39:17;;;;;;;7.25;3.08;;;24.30;99.90;;;;;;5082309;28;20416;-53
2022/07/13 06:41:42;;;;;;;8.10;3.40;;;24.40;99.90;;;;;;5073341;28;20403;-53
2022/07/13 06:44:08;;;;;;;9.00;3.40;;;24.50;99.90;;;;;;5073834;28;20403;-53
2022/07/13 06:46:34;;;;;;;9.37;3.43;;;24.80;99.90;;;;;;5073185;28;20392;-53
2022/07/13 06:49:00;;;;;;;7.80;3.10;;;25.90;99.90;;;;;;5082420;28;21128;-53
2022/07/13 06:51:25;;;;;;;8.33;2.70;;;26.90;99.90;;;;;;5076463;28;20475;-56
2022/07/13 06:53:51;;;;;;;8.30;2.50;;;27.80;99.90;;;;;;5078132;28;20406;-54
2022/07/13 06:56:17;;;;;;;7.60;2.80;;;29.30;99.90;;;;;;5072726;28;20395;-54
2022/07/13 06:58:42;;;;;;;8.68;3.10;;;31.30;99.90;;;;;;5085444;28;20432;-55
2022/07/13 07:01:09;;;;;;;9.30;4.40;;;32.80;99.90;;;;;;5091557;28;20393;-55
2022/07/13 07:03:35;;;;;;;8.32;4.30;;;33.70;99.90;;;;;;5071834;28;20388;-54
2022/07/13 07:06:00;;;;;;;8.00;5.05;;;34.60;1.00;;;;;;5070438;28;20413;-54
2022/07/13 07:08:26;;;;;;;9.30;5.55;;;35.60;1.00;;;;;;5069819;28;20396;-55
2022/07/13 07:10:51;;;;;;;6.77;3.97;;;36.40;1.00;;;;;;5076533;28;20453;-55
2022/07/13 07:13:17;;;;;;;8.93;2.50;;;36.80;1.00;;;;;;5075940;28;20511;-55
2022/07/13 07:15:43;;;;;;;9.40;8.13;;;37.50;99.90;;;;;;5070508;28;20388;-55
2022/07/13 07:18:08;;;;;;;9.70;5.15;;;38.70;99.90;;;;;;5070827;28;20498;-55
2022/07/13 07:20:34;;;;;;;6.90;2.10;;;38.40;99.90;;;;;;5070972;28;20390;-57
2022/07/13 07:23:00;;;;;;;5.50;2.10;;;37.60;99.90;;;;;;5070235;28;20364;-55
2022/07/13 07:25:26;;;;;;;7.40;2.40;;;38.20;99.90;;;;;;5071233;28;20493;-55
2022/07/13 07:27:52;;;;;;;6.75;2.40;;;37.30;99.90;;;;;;5069422;28;20837;-55
2022/07/13 07:30:18;;;;;;;7.40;2.10;;;36.90;99.90;;;;;;5070938;28;20379;-55
2022/07/13 07:32:43;;;;;;;7.00;3.05;;;37.40;99.90;;;;;;5070100;28;20953;-55
2022/07/13 07:35:10;;;;;;;7.20;2.40;;;38.50;99.90;;;;;;5070644;28;20394;-55
2022/07/13 07:37:38;;;;;;;9.43;4.90;;;38.90;99.90;;;;;;5070254;28;20375;-55
2022/07/13 07:40:05;;;;;;;8.70;5.50;;;37.50;99.90;;;;;;5070374;28;20478;-55
2022/07/13 07:42:31;;;;;;;5.95;3.80;;;35.90;99.90;;;;;;5070364;28;20478;-55
2022/07/13 07:44:56;;;;;;;8.97;5.07;;;36.40;99.90;;;;;;5069295;28;21256;-55
2022/07/13 07:47:25;;;;;;;7.80;4.37;;;36.70;99.90;;;;;;5070425;28;20418;-55
2022/07/13 07:49:54;;;;;;;6.82;4.38;;;37.70;99.90;;;;;;5077711;28;20510;-55
2022/07/13 07:52:21;;;;;;;8.00;5.10;;;37.20;99.90;;;;;;5083521;28;20841;-55
2022/07/13 07:54:47;;;;;;;7.32;4.43;;;36.70;99.90;;;;;;5073244;28;20475;-55
2022/07/13 07:57:13;;;;;;;8.35;5.32;;;36.70;99.90;;;;;;5070318;28;20384;-56
2022/07/13 07:59:39;;;;;;;8.30;5.50;;;35.90;99.90;;;;;;5071068;28;20522;-65
2022/07/13 08:02:05;;;;;;;7.97;4.60;;;34.70;99.90;;;;;;5069720;28;20388;-57
2022/07/13 08:04:31;;;;;;;7.70;4.53;;;34.00;99.90;;;;;;5070214;28;20779;-54
2022/07/13 08:06:57;;;;;;;8.10;4.63;;;33.90;99.90;;;;;;5068727;28;20433;-55
2022/07/13 08:09:22;;;;;;;8.90;6.82;;;33.60;99.90;;;;;;5070344;28;20367;-55
2022/07/13 08:11:48;;;;;;;7.32;5.57;;;33.60;99.90;;;;;;5068828;28;20383;-55
2022/07/13 08:14:14;;;;;;;8.40;4.90;;;33.90;99.90;;;;;;5082873;28;20382;-54
2022/07/13 08:16:40;;;;;;;8.20;4.60;;;33.80;99.90;;;;;;5089913;28;20858;-65
2022/07/13 08:19:05;;;;;;;8.07;4.88;;;34.20;99.90;;;;;;5089702;28;20468;-54
2022/07/13 08:21:31;;;;;;;8.70;4.60;;;34.30;99.90;;;;;;5089953;28;20390;-56
2022/07/13 08:23:56;;;;;;;7.20;4.55;;;34.10;99.90;;;;;;5088956;28;20378;-55
2022/07/13 08:26:30;;;;;;;8.00;5.53;;;34.00;99.90;;;;;;5089693;28;20488;-55
2022/07/13 08:28:57;;;;;;;8.27;4.75;;;33.70;99.90;;;;;;5089295;28;20386;-55
2022/07/13 08:31:23;;;;;;;8.60;5.38;;;33.70;99.90;;;;;;5090014;28;20414;-55
2022/07/13 08:39:22;;;;;;;7.38;5.30;;;33.90;99.90;;;;;;5089501;28;20494;-54
2022/07/13 08:41:48;;;;;;;8.43;5.32;;;33.70;99.90;;;;;;5089018;28;20850;-54
2022/07/13 08:44:15;;;;;;;7.78;5.85;;;33.60;99.90;;;;;;5089845;28;20397;-54
2022/07/13 08:46:41;;;;;;;6.82;5.43;;;34.70;99.90;;;;;;5089301;28;20735;-65
2022/07/13 08:49:08;;;;;;;10.82;4.50;;;35.40;99.90;;;;;;5089477;28;20386;-55
2022/07/13 08:51:34;;;;;;;7.88;5.70;;;35.00;99.90;;;;;;5089819;28;20382;-55
2022/07/13 08:54:02;;;;;;;9.20;4.60;;;35.20;99.90;;;;;;5088948;28;20563;-55
2022/07/13 08:56:28;;;;;;;9.98;5.05;;;36.00;99.90;;;;;;5089421;28;20390;-55
2022/07/13 08:58:54;;;;;;;6.65;4.60;;;35.90;99.90;;;;;;5088920;28;20406;-55
2022/07/13 09:01:20;;;;;;;7.07;5.10;;;35.80;99.90;;;;;;5089360;28;20370;-55
2022/07/13 09:07:36;;;;;;;7.00;5.80;;;36.70;99.90;;;;;;5089286;28;20400;-56
2022/07/13 09:10:04;;;;;;;8.88;1.98;;;38.50;99.90;;;;;;5088554;28;20386;-56
2022/07/13 09:12:29;;;;;;;6.80;3.28;;;40.30;99.90;;;;;;5089357;28;20385;-55
2022/07/13 09:15:06;;;;;;;6.57;1.90;;;41.60;99.90;;;;;;5072574;28;20380;-55
2022/07/13 09:17:42;;;;;;;7.20;2.00;;;42.00;99.90;;;;;;5072984;28;20732;-55
2022/07/13 09:20:14;;;;;;;6.80;2.10;;;41.70;99.90;;;;;;5073531;28;20452;-55
2022/07/13 09:22:56;;;;;;;5.17;1.70;;;42.40;99.90;;;;;;5072023;28;20744;-64
2022/07/13 09:25:26;;;;;;;8.80;1.50;;;42.50;99.90;;;;;;5073298;28;20379;-56
2022/07/13 09:27:52;;;;;;;5.78;1.50;;;42.20;99.90;;;;;;5071963;28;20415;-55
2022/07/13 09:30:26;;;;;;;5.40;1.50;;;42.40;99.90;;;;;;5073183;28;20383;-58
2022/07/13 09:32:57;;;;;;;9.73;5.38;;;41.00;99.90;;;;;;5072194;28;20391;-55
2022/07/13 09:35:50;;;;;;;6.10;5.50;;;39.50;99.90;;;;;;5072835;28;20421;-59
2022/07/13 09:38:34;;;;;;;5.47;1.33;;;39.70;99.90;;;;;;5073046;28;20404;-56
2022/07/13 09:41:17;;;;;;;5.18;1.02;;;39.40;99.90;;;;;;5072076;28;20392;-57
2022/07/13 09:46:55;;;;;;;5.00;1.40;;;39.20;99.90;;;;;;5072336;28;20420;-55
2022/07/13 09:49:41;;;;;;;6.72;3.80;;;39.20;99.90;;;;;;5072734;28;20409;-55
2022/07/13 09:52:18;;;;;;;9.13;6.78;;;39.50;99.90;;;;;;5072644;28;20395;-57
2022/07/13 09:54:48;;;;;;;4.50;1.00;;;40.50;99.90;;;;;;5072122;28;20384;-65
2022/07/13 09:57:16;;;;;;;4.90;1.23;;;40.90;99.90;;;;;;5072338;28;20760;-57
2022/07/13 09:59:44;;;;;;;4.90;2.08;;;41.10;99.90;;;;;;5072034;28;20419;-65
2022/07/13 10:02:10;;;;;;;5.45;2.30;;;41.30;99.90;;;;;;5072616;28;20387;-55
2022/07/13 10:04:36;;;;;;;5.90;1.27;;;40.50;99.90;;;;;;5072722;28;20382;-55
2022/07/13 10:07:03;;;;;;;5.60;1.30;;;40.00;99.90;;;;;;5071882;28;20372;-55
2022/07/13 10:09:32;;;;;;;8.52;1.40;;;39.90;99.90;;;;;;5072487;28;20468;-57
2022/07/13 10:11:59;;;;;;;7.20;1.30;;;40.20;99.90;;;;;;5071909;28;20387;-55
2022/07/13 10:14:29;;;;;;;10.60;1.40;;;40.20;99.90;;;;;;5086195;28;20382;-55
2022/07/13 10:17:07;;;;;;;5.00;0.90;;;40.80;99.90;;;;;;5091841;28;20409;-56
2022/07/13 10:19:40;;;;;;;5.10;0.93;;;41.50;99.90;;;;;;5092648;28;20540;-56
2022/07/13 10:22:09;;;;;;;5.15;1.10;;;41.40;99.90;;;;;;5092579;28;20843;-57
2022/07/13 10:24:36;;;;;;;4.93;1.00;;;42.30;99.90;;;;;;5092487;28;20382;-56
2022/07/13 10:27:25;;;;;;;5.90;1.00;;;42.60;99.90;;;;;;5089607;28;20398;-56
2022/07/13 10:29:57;;;;;;;4.70;1.20;;;41.40;99.90;;;;;;5091764;28;20479;-56
2022/07/13 10:32:26;;;;;;;4.60;1.10;;;41.10;99.90;;;;;;5092402;28;20473;-56
2022/07/13 10:34:52;;;;;;;4.70;1.10;;;41.50;99.90;;;;;;5091221;28;20390;-55
2022/07/13 10:37:17;;;;;;;9.20;1.70;;;40.60;99.90;;;;;;5092229;28;20391;-55
2022/07/13 10:40:10;;;;;;;5.90;2.40;;;39.80;99.90;;;;;;5091686;28;20394;-64
2022/07/13 10:42:53;;;;;;;6.00;3.03;;;38.60;99.90;;;;;;5092096;28;21150;-55
2022/07/13 10:45:32;;;;;;;7.50;5.70;;;37.80;99.90;;;;;;5092162;28;20388;-55
2022/07/13 10:48:04;;;;;;;6.80;5.90;;;37.20;99.90;;;;;;5091134;28;20384;-58
2022/07/13 10:50:36;;;;;;;8.10;5.90;;;36.90;99.90;;;;;;5091827;28;20858;-60
2022/07/13 10:53:02;;;;;;;7.65;6.65;;;36.70;99.90;;;;;;5091364;28;20386;-55
2022/07/13 10:55:30;;;;;;;6.85;6.15;;;36.20;99.90;;;;;;5091736;28;20457;-63
2022/07/13 10:57:56;;;;;;;8.60;7.80;;;36.00;99.90;;;;;;5090444;28;20482;-55
2022/07/13 11:00:38;;;;;;;8.20;7.50;;;35.70;99.90;;;;;;5091583;28;20446;-55
2022/07/13 11:03:07;;;;;;;7.00;5.70;;;35.60;99.90;;;;;;5090851;28;21016;-55
2022/07/13 11:05:35;;;;;;;7.13;6.43;;;35.70;99.90;;;;;;5091670;28;20873;-55
2022/07/13 11:08:15;;;;;;;7.82;5.82;;;35.90;99.90;;;;;;5090708;28;20394;-56
2022/07/13 11:10:41;;;;;;;7.03;6.10;;;36.60;99.90;;;;;;5091511;28;20370;-55
2022/07/13 11:13:09;;;;;;;6.40;5.70;;;37.10;99.90;;;;;;5087140;28;20380;-57
2022/07/13 11:15:55;;;;;;;6.20;5.40;;;37.20;99.90;;;;;;5071357;28;20411;-55
2022/07/13 11:18:32;;;;;;;7.10;5.60;;;37.30;99.90;;;;;;5084137;28;20887;-55
2022/07/13 11:21:14;;;;;;;7.50;6.07;;;37.20;99.90;;;;;;5090314;28;20793;-55
2022/07/13 11:27:05;;;;;;;7.20;6.00;;;36.90;99.90;;;;;;5087121;28;20424;-55
2022/07/13 11:29:59;;;;;;;7.70;6.30;;;35.90;99.90;;;;;;5086869;28;20412;-56
2022/07/13 11:32:25;;;;;;;8.00;5.60;;;35.60;99.90;;;;;;5082593;28;20473;-56
2022/07/13 11:34:52;;;;;;;7.80;7.10;;;35.90;99.90;;;;;;5079217;28;20398;-55
2022/07/13 11:37:25;;;;;;;7.60;6.60;;;35.70;99.90;;;;;;5082751;28;20402;-55
2022/07/13 11:39:51;;;;;;;8.50;6.30;;;35.50;99.90;;;;;;5084091;28;20406;-55
2022/07/13 11:42:22;;;;;;;7.80;7.10;;;35.20;99.90;;;;;;5081186;28;20382;-55
2022/07/13 11:44:50;;;;;;;7.72;6.03;;;35.10;99.90;;;;;;5077552;28;20500;-55
2022/07/13 11:47:16;;;;;;;7.88;7.18;;;35.20;99.90;;;;;;5083007;28;20406;-55
2022/07/13 11:49:50;;;;;;;7.23;6.53;;;35.30;99.90;;;;;;5087398;28;20398;-56
2022/07/13 11:52:24;;;;;;;8.18;7.38;;;35.30;99.90;;;;;;5074893;28;20379;-55
2022/07/13 11:54:58;;;;;;;7.50;6.80;;;35.40;99.90;;;;;;5069938;28;20389;-55
2022/07/13 11:57:24;;;;;;;7.90;7.20;;;35.40;99.90;;;;;;5074266;28;20424;-57
2022/07/13 11:59:50;;;;;;;8.05;7.35;;;35.50;99.90;;;;;;5081244;28;20415;-55
2022/07/13 12:02:16;;;;;;;7.45;6.75;;;35.30;99.90;;;;;;5087953;28;20896;-58
2022/07/13 12:04:47;;;;;;;7.60;6.90;;;35.30;99.90;;;;;;5087483;28;20477;-55
2022/07/13 12:07:19;;;;;;;7.30;6.60;;;35.30;99.90;;;;;;5090161;28;20381;-55
2022/07/13 12:09:55;;;;;;;6.80;6.10;;;35.20;99.90;;;;;;5084015;28;20806;-64
2022/07/13 12:12:32;;;;;;;7.50;6.80;;;35.20;99.90;;;;;;5069882;28;20459;-55
2022/07/13 12:14:58;;;;;;;7.90;7.10;;;35.10;99.90;;;;;;5087587;28;20485;-55
2022/07/13 12:17:26;;;;;;;7.90;7.10;;;35.30;99.90;;;;;;5085268;28;20401;-55
2022/07/13 12:19:52;;;;;;;8.55;6.38;;;35.10;99.90;;;;;;5082329;28;20404;-55
2022/07/13 12:22:23;;;;;;;7.20;6.13;;;35.10;99.90;;;;;;5077552;28;20487;-55
2022/07/13 12:24:49;;;;;;;7.40;6.70;;;35.20;99.90;;;;;;5073707;28;20394;-55
2022/07/13 12:27:25;;;;;;;7.50;6.80;;;35.30;99.90;;;;;;5080684;28;20410;-55
2022/07/13 12:29:52;;;;;;;7.95;7.25;;;35.40;99.90;;;;;;5083067;28;20413;-55
2022/07/13 12:32:18;;;;;;;7.18;6.47;;;35.70;99.90;;;;;;5081664;28;20934;-55
2022/07/13 12:34:54;;;;;;;6.90;5.90;;;35.40;99.90;;;;;;5081763;28;20390;-63
2022/07/13 12:37:35;;;;;;;8.02;6.05;;;35.60;99.90;;;;;;5090261;28;20386;-55
2022/07/13 12:40:01;;;;;;;7.43;6.63;;;35.80;99.90;;;;;;5089473;28;20381;-55
2022/07/13 12:42:27;;;;;;;7.07;6.27;;;36.10;99.90;;;;;;5089948;28;20489;-56
2022/07/13 12:44:53;;;;;;;6.23;5.63;;;36.00;99.90;;;;;;5088931;28;20528;-55
2022/07/13 12:47:24;;;;;;;6.60;5.70;;;35.90;99.90;;;;;;5086944;28;20420;-55
2022/07/13 12:49:50;;;;;;;7.50;6.80;;;35.90;99.90;;;;;;5080082;28;20747;-55
2022/07/13 12:52:19;;;;;;;7.97;7.28;;;35.90;99.90;;;;;;5080599;28;20848;-55
2022/07/13 12:54:50;;;;;;;7.78;7.07;;;36.30;99.90;;;;;;5074319;28;20403;-64
2022/07/13 12:57:22;;;;;;;7.05;6.30;;;36.10;99.90;;;;;;5078541;28;20855;-55
2022/07/13 12:59:58;;;;;;;6.43;5.82;;;35.90;99.90;;;;;;5077643;28;20887;-63
2022/07/13 13:02:24;;;;;;;6.93;6.10;;;35.60;99.90;;;;;;5079837;28;20388;-55
2022/07/13 13:04:49;;;;;;;7.20;6.50;;;35.60;99.90;;;;;;5074435;28;20412;-58
2022/07/13 13:07:16;;;;;;;6.80;6.10;;;35.70;99.90;;;;;;5071598;28;20386;-55
2022/07/13 13:09:41;;;;;;;7.60;6.70;;;35.60;99.90;;;;;;5072351;28;20445;-54
2022/07/13 13:12:07;;;;;;;7.32;6.70;;;35.50;99.90;;;;;;5068693;28;20388;-55
2022/07/13 13:14:32;;;;;;;7.40;6.60;;;35.10;99.90;;;;;;5083475;28;20424;-55